createdAt,value
2019-02-16T00:00:45.941Z,6.50
2019-02-16T00:03:15.256Z,6.44
2019-02-16T00:05:44.569Z,6.52
2019-02-16T00:08:13.870Z,6.40
2019-02-16T00:10:43.189Z,6.27
2019-02-16T00:13:12.502Z,6.30
2019-02-16T00:15:42.029Z,6.33
2019-02-16T00:18:11.568Z,6.40
2019-02-16T00:20:41.108Z,6.56
2019-02-16T00:23:10.798Z,6.68
2019-02-16T00:25:40.100Z,6.54
2019-02-16T00:28:09.434Z,6.54
2019-02-16T00:30:38.825Z,6.61
2019-02-16T00:33:08.143Z,6.61
2019-02-16T00:35:37.448Z,6.56
2019-02-16T00:38:06.779Z,6.46
2019-02-16T00:40:36.059Z,6.35
2019-02-16T00:43:05.365Z,6.10
2019-02-16T00:45:36.577Z,6.06
2019-02-16T00:48:05.799Z,6.06
2019-02-16T00:50:38.257Z,6.06
2019-02-16T00:53:06.917Z,5.97
2019-02-16T00:55:36.266Z,5.92
2019-02-16T00:58:05.609Z,5.95
2019-02-16T01:00:35.155Z,5.82
2019-02-16T01:03:04.524Z,5.69
2019-02-16T01:05:34.008Z,5.60
2019-02-16T01:08:03.389Z,5.31
2019-02-16T01:10:32.764Z,5.49
2019-02-16T01:13:02.066Z,5.34
2019-02-16T01:15:31.494Z,5.22
2019-02-16T01:18:01.102Z,5.44
2019-02-16T01:20:30.615Z,5.35
2019-02-16T01:22:59.927Z,5.17
2019-02-16T01:25:29.222Z,5.23
2019-02-16T01:27:58.527Z,5.23
2019-02-16T01:30:27.820Z,5.14
2019-02-16T01:32:57.125Z,5.09
2019-02-16T01:35:26.471Z,4.87
2019-02-16T01:37:55.853Z,4.84
2019-02-16T01:40:25.142Z,4.69
2019-02-16T01:42:54.436Z,4.56
2019-02-16T01:45:23.712Z,4.92
2019-02-16T01:47:53.124Z,4.80
2019-02-16T01:50:22.410Z,4.75
2019-02-16T01:52:51.696Z,4.66
2019-02-16T01:55:20.973Z,4.69
2019-02-16T01:57:50.290Z,4.66
2019-02-16T02:00:19.642Z,4.65
2019-02-16T02:02:48.967Z,4.33
2019-02-16T02:05:18.597Z,4.70
2019-02-16T02:07:48.075Z,4.60
2019-02-16T02:10:19.292Z,4.51
2019-02-16T02:12:49.108Z,4.29
2019-02-16T02:15:20.070Z,4.17
2019-02-16T02:17:49.544Z,4.19
2019-02-16T02:20:19.131Z,4.03
2019-02-16T02:22:48.716Z,4.36
2019-02-16T02:25:18.006Z,4.29
2019-02-16T02:27:47.314Z,4.33
2019-02-16T02:30:16.894Z,4.25
2019-02-16T02:32:46.191Z,4.27
2019-02-16T02:35:15.539Z,4.26
2019-02-16T02:37:44.817Z,4.04
2019-02-16T02:40:14.485Z,3.92
2019-02-16T02:42:43.766Z,3.50
2019-02-16T02:45:13.144Z,3.92
2019-02-16T02:47:42.436Z,3.89
2019-02-16T02:50:11.752Z,4.18
2019-02-16T02:52:41.022Z,4.07
2019-02-16T02:55:10.586Z,4.08
2019-02-16T02:57:39.872Z,4.18
2019-02-16T03:00:10.514Z,3.93
2019-02-16T03:02:39.885Z,3.68
2019-02-16T03:05:10.729Z,4.11
2019-02-16T03:07:40.108Z,4.21
2019-02-16T03:10:09.377Z,4.13
2019-02-16T03:12:38.694Z,3.96
2019-02-16T03:15:09.200Z,3.84
2019-02-16T03:17:38.498Z,3.42
2019-02-16T03:20:07.914Z,3.26
2019-02-16T03:23:14.807Z,3.40
2019-02-16T03:25:50.149Z,3.79
2019-02-16T03:28:44.061Z,3.74
2019-02-16T03:31:33.012Z,3.49
2019-02-16T03:34:25.982Z,4.09
2019-02-16T03:37:18.049Z,4.29
2019-02-16T03:39:47.937Z,4.11
2019-02-16T03:42:17.430Z,4.33
2019-02-16T03:44:46.721Z,4.59
2019-02-16T03:47:16.039Z,4.70
2019-02-16T03:49:45.370Z,4.81
2019-02-16T03:52:14.749Z,4.81
2019-02-16T03:54:44.091Z,4.61
2019-02-16T03:57:13.384Z,4.37
2019-02-16T03:59:42.694Z,4.39
2019-02-16T04:02:13.651Z,4.46
2019-02-16T04:04:43.023Z,4.43
2019-02-16T04:07:12.310Z,4.38
2019-02-16T04:09:41.692Z,4.32
2019-02-16T04:12:10.989Z,3.98
2019-02-16T04:14:40.270Z,4.19
2019-02-16T04:17:09.592Z,4.42
2019-02-16T04:19:38.947Z,4.61
2019-02-16T04:22:08.266Z,4.74
2019-02-16T04:24:37.565Z,4.76
2019-02-16T04:27:06.952Z,4.83
2019-02-16T04:29:36.302Z,4.63
2019-02-16T04:32:05.579Z,4.31
2019-02-16T04:34:34.889Z,4.38
2019-02-16T04:37:04.262Z,4.65
2019-02-16T04:39:33.562Z,5.01
2019-02-16T04:42:03.251Z,5.12
2019-02-16T04:44:32.551Z,4.79
2019-02-16T04:47:01.924Z,4.76
2019-02-16T04:49:31.217Z,4.94
2019-02-16T04:52:00.564Z,5.09
2019-02-16T04:54:29.839Z,4.98
2019-02-16T04:57:02.059Z,5.19
2019-02-16T04:59:31.393Z,5.20
2019-02-16T05:02:00.683Z,5.28
2019-02-16T05:04:30.443Z,5.68
2019-02-16T05:06:59.728Z,5.61
2019-02-16T05:09:29.067Z,5.55
2019-02-16T05:11:58.415Z,5.40
2019-02-16T05:14:27.683Z,5.21
2019-02-16T05:16:57.556Z,4.99
2019-02-16T05:19:26.850Z,4.76
2019-02-16T05:21:56.150Z,4.36
2019-02-16T05:24:25.470Z,4.28
2019-02-16T05:26:54.798Z,4.22
2019-02-16T05:29:26.756Z,4.17
2019-02-16T05:31:56.108Z,4.58
2019-02-16T05:34:25.485Z,4.54
2019-02-16T05:36:54.780Z,4.43
2019-02-16T05:39:24.061Z,4.24
2019-02-16T05:41:53.416Z,4.20
2019-02-16T05:44:22.688Z,4.20
2019-02-16T05:46:51.989Z,4.03
2019-02-16T05:49:21.301Z,4.02
2019-02-16T05:51:50.611Z,3.83
2019-02-16T05:54:19.891Z,3.80
2019-02-16T05:56:49.259Z,3.44
2019-02-16T05:59:18.577Z,3.54
2019-02-16T06:01:53.751Z,3.71
2019-02-16T06:04:19.435Z,3.83
2019-02-16T06:06:48.824Z,3.71
2019-02-16T06:09:18.138Z,3.69
2019-02-16T06:11:47.426Z,3.51
2019-02-16T06:14:16.764Z,3.34
2019-02-16T06:16:46.056Z,3.51
2019-02-16T06:19:15.358Z,3.22
2019-02-16T06:21:44.722Z,3.35
2019-02-16T06:24:14.033Z,3.36
2019-02-16T06:26:43.329Z,3.33
2019-02-16T06:29:12.838Z,3.64
2019-02-16T06:31:42.117Z,3.87
2019-02-16T06:34:11.423Z,4.08
2019-02-16T06:36:40.747Z,4.26
2019-02-16T06:39:10.315Z,4.56
2019-02-16T06:41:39.592Z,4.08
2019-02-16T06:44:09.173Z,3.68
2019-02-16T06:46:38.473Z,3.29
2019-02-16T06:49:07.792Z,3.56
2019-02-16T06:51:37.254Z,3.48
2019-02-16T06:54:06.572Z,3.40
2019-02-16T06:56:37.534Z,3.47
2019-02-16T06:59:06.850Z,3.44
2019-02-16T07:01:36.137Z,3.29
2019-02-16T07:04:05.445Z,3.38
2019-02-16T07:06:34.839Z,3.21
2019-02-16T07:09:05.092Z,3.46
2019-02-16T07:11:34.409Z,3.67
2019-02-16T07:14:03.905Z,3.80
2019-02-16T07:16:43.715Z,3.83
2019-02-16T07:19:14.737Z,4.00
2019-02-16T07:21:44.224Z,4.02
2019-02-16T07:24:14.061Z,4.09
2019-02-16T07:26:43.516Z,4.49
2019-02-16T07:29:12.972Z,4.61
2019-02-16T07:31:43.553Z,4.70
2019-02-16T07:34:12.858Z,4.44
2019-02-16T07:36:42.311Z,4.44
2019-02-16T07:39:12.165Z,5.01
2019-02-16T07:41:41.560Z,5.73
2019-02-16T07:44:15.182Z,5.72
2019-02-16T07:46:46.227Z,6.36
2019-02-16T07:49:17.450Z,6.94
2019-02-16T07:52:04.745Z,7.96
2019-02-16T07:54:52.216Z,7.96
2019-02-16T07:57:23.244Z,8.42
2019-02-16T07:59:54.188Z,8.23
2019-02-16T08:02:36.904Z,7.90
2019-02-16T08:05:14.173Z,7.75
2019-02-16T08:08:01.882Z,7.93
2019-02-16T08:10:38.566Z,7.61
2019-02-16T08:13:15.125Z,7.63
2019-02-16T08:15:55.506Z,7.61
2019-02-16T08:18:26.415Z,7.68
2019-02-16T08:21:03.314Z,7.55
2019-02-16T08:23:40.201Z,7.62
2019-02-16T08:26:18.689Z,7.66
2019-02-16T08:28:49.809Z,7.80
2019-02-16T08:31:21.242Z,8.22
2019-02-16T08:33:52.280Z,8.47
2019-02-16T08:36:32.089Z,9.22
2019-02-16T08:39:03.027Z,9.22
2019-02-16T08:41:42.688Z,9.55
2019-02-16T08:44:13.649Z,9.55
2019-02-16T08:46:44.587Z,9.89
2019-02-16T08:49:27.519Z,10.14
2019-02-16T08:52:15.055Z,11.01
2019-02-16T08:54:48.698Z,12.45
2019-02-16T08:57:31.401Z,14.09
2019-02-16T09:00:17.064Z,15.36
2019-02-16T09:02:48.063Z,15.81
2019-02-16T09:05:21.996Z,16.31
2019-02-16T09:07:58.554Z,15.56
2019-02-16T09:10:32.255Z,15.10
2019-02-16T09:13:03.214Z,14.50
2019-02-16T09:15:39.842Z,14.33
2019-02-16T09:18:13.506Z,13.55
2019-02-16T09:20:47.145Z,13.18
2019-02-16T09:23:35.895Z,13.41
2019-02-16T09:26:09.587Z,13.00
2019-02-16T09:28:55.290Z,12.96
2019-02-16T09:31:32.523Z,13.05
2019-02-16T09:34:05.903Z,13.33
2019-02-16T09:36:39.752Z,13.00
2019-02-16T09:39:10.853Z,11.84
2019-02-16T09:41:41.976Z,13.96
2019-02-16T09:44:27.962Z,15.33
2019-02-16T09:47:14.867Z,13.52
2019-02-16T09:49:51.886Z,14.45
2019-02-16T09:52:31.810Z,14.72
2019-02-16T09:55:14.344Z,14.76
2019-02-16T09:57:47.997Z,14.22
2019-02-16T10:00:21.880Z,13.97
2019-02-16T10:02:52.826Z,14.28
2019-02-16T10:05:27.177Z,14.37
2019-02-16T10:08:10.414Z,14.16
2019-02-16T10:10:44.291Z,13.93
2019-02-16T10:13:15.223Z,13.18
2019-02-16T10:15:54.880Z,13.96
2019-02-16T10:18:28.744Z,14.15
2019-02-16T10:20:59.879Z,13.99
2019-02-16T10:23:36.805Z,14.17
2019-02-16T10:26:10.439Z,15.05
2019-02-16T10:28:44.313Z,15.89
2019-02-16T10:31:15.263Z,14.78
2019-02-16T10:34:02.711Z,16.03
2019-02-16T10:36:36.515Z,17.16
2019-02-16T10:39:17.051Z,18.32
2019-02-16T10:41:50.936Z,17.36
2019-02-16T10:44:37.041Z,17.96
2019-02-16T10:47:13.608Z,18.52
2019-02-16T10:49:59.811Z,18.11
2019-02-16T10:52:31.210Z,18.33
2019-02-16T10:55:18.292Z,17.94
2019-02-16T10:57:49.416Z,18.40
2019-02-16T11:00:26.699Z,19.21
2019-02-16T11:02:57.647Z,20.60
2019-02-16T11:05:40.764Z,21.08
2019-02-16T11:08:23.571Z,22.07
2019-02-16T11:10:56.939Z,21.33
2019-02-16T11:13:30.585Z,22.23
2019-02-16T11:16:01.510Z,21.42
2019-02-16T11:18:38.104Z,20.93
2019-02-16T11:21:12.055Z,20.07
2019-02-16T11:23:48.803Z,22.03
2019-02-16T11:26:37.937Z,22.88
2019-02-16T11:29:24.187Z,23.35
2019-02-16T11:32:06.924Z,22.95
2019-02-16T11:34:54.233Z,23.03
2019-02-16T11:37:30.873Z,19.21
2019-02-16T11:40:05.134Z,17.34
2019-02-16T11:42:36.076Z,18.98
2019-02-16T11:45:24.850Z,20.42
2019-02-16T11:47:55.792Z,19.24
2019-02-16T11:50:38.377Z,21.52
2019-02-16T11:53:15.461Z,21.88
2019-02-16T11:56:01.134Z,18.09
2019-02-16T11:58:48.307Z,19.24
2019-02-16T12:01:35.170Z,21.56
2019-02-16T12:04:09.234Z,20.05
2019-02-16T12:06:49.329Z,18.02
2019-02-16T12:09:29.352Z,20.76
2019-02-16T12:12:00.313Z,22.55
2019-02-16T12:14:37.258Z,24.50
2019-02-16T12:17:08.304Z,24.81
2019-02-16T12:19:50.878Z,24.30
2019-02-16T12:22:21.820Z,25.35
2019-02-16T12:25:06.097Z,22.92
2019-02-16T12:27:43.595Z,22.52
2019-02-16T12:30:26.147Z,23.59
2019-02-16T12:32:57.068Z,22.60
2019-02-16T12:35:34.046Z,23.79
2019-02-16T12:38:04.994Z,23.26
2019-02-16T12:40:44.681Z,23.67
2019-02-16T12:43:15.597Z,24.42
2019-02-16T12:45:51.317Z,24.03
2019-02-16T12:48:23.136Z,23.79
2019-02-16T12:51:10.187Z,25.03
2019-02-16T12:53:56.326Z,26.38
2019-02-16T12:56:29.930Z,26.53
2019-02-16T12:59:03.878Z,27.58
2019-02-16T13:01:37.596Z,26.05
2019-02-16T13:04:23.567Z,26.63
2019-02-16T13:06:57.100Z,22.41
2019-02-16T13:09:30.992Z,21.69
2019-02-16T13:12:20.250Z,25.29
2019-02-16T13:14:58.071Z,26.51
2019-02-16T13:17:47.652Z,26.78
2019-02-16T13:20:18.603Z,25.14
2019-02-16T13:22:49.555Z,25.67
2019-02-16T13:25:24.724Z,24.28
2019-02-16T13:27:58.517Z,25.39
2019-02-16T13:30:35.255Z,24.78
2019-02-16T13:33:14.951Z,23.59
2019-02-16T13:35:54.617Z,21.15
2019-02-16T13:38:28.338Z,24.09
2019-02-16T13:41:01.999Z,25.40
2019-02-16T13:43:42.106Z,20.91
2019-02-16T13:46:19.284Z,20.74
2019-02-16T13:48:50.342Z,23.04
2019-02-16T13:51:37.742Z,24.07
2019-02-16T13:54:20.711Z,24.20
2019-02-16T13:57:10.190Z,23.69
2019-02-16T13:59:41.141Z,22.31
2019-02-16T14:02:27.968Z,21.31
2019-02-16T14:05:02.203Z,20.21
2019-02-16T14:07:49.454Z,19.56
2019-02-16T14:10:26.568Z,19.34
2019-02-16T14:13:00.197Z,18.69
2019-02-16T14:15:33.805Z,18.70
2019-02-16T14:18:03.090Z,18.54
2019-02-16T14:20:35.257Z,18.56
2019-02-16T14:23:04.608Z,17.88
2019-02-16T14:25:42.791Z,17.92
2019-02-16T14:28:08.162Z,18.01
2019-02-16T14:30:37.480Z,18.04
2019-02-16T14:33:06.788Z,17.52
2019-02-16T14:35:36.170Z,17.19
2019-02-16T14:38:12.863Z,17.30
2019-02-16T14:40:42.194Z,17.49
2019-02-16T14:43:11.497Z,17.15
2019-02-16T14:45:41.459Z,17.37
2019-02-16T14:48:10.786Z,17.49
2019-02-16T14:50:40.188Z,17.37
2019-02-16T14:53:09.503Z,17.44
2019-02-16T14:55:38.789Z,17.44
2019-02-16T14:58:08.119Z,17.47
2019-02-16T15:00:37.433Z,17.27
2019-02-16T15:03:06.759Z,17.18
2019-02-16T15:05:36.052Z,17.46
2019-02-16T15:08:05.663Z,17.53
2019-02-16T15:10:35.051Z,17.36
2019-02-16T15:13:04.475Z,17.09
2019-02-16T15:15:33.764Z,17.14
2019-02-16T15:18:03.865Z,17.35
2019-02-16T15:20:33.448Z,17.33
2019-02-16T15:23:02.934Z,17.32
2019-02-16T15:25:32.195Z,17.22
2019-02-16T15:28:01.520Z,17.21
2019-02-16T15:30:30.807Z,17.05
2019-02-16T15:33:00.125Z,17.06
2019-02-16T15:35:29.423Z,17.04
2019-02-16T15:37:58.801Z,16.98
2019-02-16T15:40:28.101Z,16.80
2019-02-16T15:42:57.460Z,16.71
2019-02-16T15:45:26.750Z,16.54
2019-02-16T15:47:56.899Z,16.49
2019-02-16T15:50:26.470Z,16.50
2019-02-16T15:52:55.862Z,16.51
2019-02-16T15:55:25.161Z,16.53
2019-02-16T15:57:54.496Z,16.47
2019-02-16T16:00:25.455Z,16.38
2019-02-16T16:02:54.919Z,16.27
2019-02-16T16:05:24.235Z,16.15
2019-02-16T16:07:55.194Z,15.98
2019-02-16T16:10:26.144Z,15.86
2019-02-16T16:12:57.237Z,15.74
2019-02-16T16:15:44.777Z,15.77
2019-02-16T16:18:15.979Z,15.76
2019-02-16T16:20:46.929Z,15.77
2019-02-16T16:23:20.596Z,15.65
2019-02-16T16:25:54.683Z,15.48
2019-02-16T16:28:31.875Z,15.36
2019-02-16T16:31:15.156Z,15.36
2019-02-16T16:34:01.387Z,15.18
2019-02-16T16:36:32.343Z,14.99
2019-02-16T16:39:06.227Z,14.73
2019-02-16T16:41:43.114Z,14.62
2019-02-16T16:44:16.724Z,14.45
2019-02-16T16:46:47.675Z,14.37
2019-02-16T16:49:24.324Z,14.21
2019-02-16T16:52:06.909Z,14.02
2019-02-16T16:54:43.609Z,13.63
2019-02-16T16:57:17.053Z,13.26
2019-02-16T16:59:48.015Z,13.21
2019-02-16T17:02:25.056Z,13.24
2019-02-16T17:05:12.056Z,13.21
2019-02-16T17:07:54.934Z,13.17
2019-02-16T17:10:25.900Z,12.55
2019-02-16T17:13:02.941Z,12.55
2019-02-16T17:15:36.435Z,12.63
2019-02-16T17:18:07.364Z,12.60
2019-02-16T17:20:43.869Z,12.61
2019-02-16T17:23:30.016Z,12.60
2019-02-16T17:26:19.211Z,12.52
2019-02-16T17:28:59.239Z,12.43
2019-02-16T17:31:30.205Z,12.07
2019-02-16T17:34:13.053Z,11.82
2019-02-16T17:36:48.415Z,11.59
2019-02-16T17:39:25.199Z,11.70
2019-02-16T17:41:58.985Z,11.58
2019-02-16T17:44:29.917Z,11.46
2019-02-16T17:47:03.957Z,11.28
2019-02-16T17:49:37.758Z,11.18
2019-02-16T17:52:24.585Z,11.11
2019-02-16T17:55:14.048Z,11.14
2019-02-16T17:57:47.822Z,10.62
2019-02-16T18:00:33.539Z,10.59
2019-02-16T18:03:10.240Z,10.46
2019-02-16T18:05:46.862Z,10.28
2019-02-16T18:08:32.551Z,10.21
2019-02-16T18:11:15.701Z,10.27
2019-02-16T18:13:46.667Z,10.18
2019-02-16T18:16:26.500Z,10.07
2019-02-16T18:19:03.227Z,10.14
2019-02-16T18:21:34.330Z,9.90
2019-02-16T18:24:11.323Z,9.93
2019-02-16T18:26:42.550Z,9.71
2019-02-16T18:29:34.486Z,9.60
2019-02-16T18:32:12.640Z,9.48
2019-02-16T18:34:46.333Z,9.53
2019-02-16T18:37:35.289Z,9.62
2019-02-16T18:40:07.344Z,9.59
2019-02-16T18:42:50.215Z,9.41
2019-02-16T18:45:23.851Z,9.23
2019-02-16T18:47:54.837Z,9.11
2019-02-16T18:50:33.053Z,8.84
2019-02-16T18:53:03.974Z,9.02
2019-02-16T18:55:37.575Z,8.92
2019-02-16T18:58:17.404Z,8.75
2019-02-16T19:00:48.356Z,8.75
2019-02-16T19:03:31.320Z,8.74
2019-02-16T19:06:18.146Z,8.71
2019-02-16T19:08:55.184Z,8.78
2019-02-16T19:11:27.676Z,8.76
2019-02-16T19:14:11.109Z,8.53
2019-02-16T19:16:42.092Z,8.47
2019-02-16T19:19:29.405Z,8.47
2019-02-16T19:22:16.470Z,8.55
2019-02-16T19:24:47.410Z,8.55
2019-02-16T19:27:23.939Z,8.55
2019-02-16T19:29:56.306Z,8.63
2019-02-16T19:32:43.635Z,8.44
2019-02-16T19:35:17.514Z,8.44
2019-02-16T19:37:51.263Z,8.39
2019-02-16T19:40:38.439Z,8.32
2019-02-16T19:43:12.090Z,8.34
2019-02-16T19:45:46.034Z,8.43
2019-02-16T19:48:25.911Z,8.46
2019-02-16T19:50:59.611Z,8.48
2019-02-16T19:53:33.289Z,8.41
2019-02-16T19:56:04.227Z,8.48
2019-02-16T19:58:51.205Z,8.36
2019-02-16T20:01:22.129Z,8.21
2019-02-16T20:03:55.869Z,7.83
2019-02-16T20:06:26.802Z,7.79
2019-02-16T20:09:00.447Z,8.00
2019-02-16T20:11:31.369Z,8.10
2019-02-16T20:14:08.468Z,7.76
2019-02-16T20:16:39.483Z,8.02
2019-02-16T20:19:28.740Z,7.90
2019-02-16T20:22:02.560Z,7.85
2019-02-16T20:24:36.008Z,7.62
2019-02-16T20:27:07.724Z,7.58
2019-02-16T20:29:39.039Z,7.76
2019-02-16T20:32:16.195Z,7.43
2019-02-16T20:35:05.430Z,7.65
2019-02-16T20:37:36.368Z,7.42
2019-02-16T20:40:24.567Z,7.83
2019-02-16T20:42:58.312Z,8.11
2019-02-16T20:45:38.332Z,8.56
2019-02-16T20:48:12.289Z,8.66
2019-02-16T20:50:46.276Z,8.70
2019-02-16T20:53:26.441Z,8.59
2019-02-16T20:56:00.183Z,8.32
2019-02-16T20:58:39.984Z,8.25
2019-02-16T21:01:16.586Z,7.95
2019-02-16T21:03:53.236Z,8.15
2019-02-16T21:06:24.221Z,8.12
2019-02-16T21:09:07.611Z,7.66
2019-02-16T21:11:47.482Z,7.72
2019-02-16T21:14:18.422Z,7.68
2019-02-16T21:17:04.155Z,7.52
2019-02-16T21:19:51.711Z,7.68
2019-02-16T21:22:28.438Z,7.60
2019-02-16T21:25:04.948Z,7.61
2019-02-16T21:27:35.906Z,7.47
2019-02-16T21:30:21.246Z,7.54
2019-02-16T21:32:55.156Z,7.49
2019-02-16T21:35:26.175Z,7.52
2019-02-16T21:38:06.199Z,7.21
2019-02-16T21:40:37.195Z,7.23
2019-02-16T21:43:20.366Z,7.23
2019-02-16T21:45:54.342Z,6.87
2019-02-16T21:48:27.310Z,6.77
2019-02-16T21:51:13.324Z,6.91
2019-02-16T21:53:47.074Z,7.14
2019-02-16T21:56:21.277Z,7.14
2019-02-16T21:59:18.865Z,6.73
2019-02-16T22:01:43.182Z,6.73
2019-02-16T22:04:16.103Z,6.62
2019-02-16T22:06:46.755Z,6.59
2019-02-16T22:09:26.936Z,6.42
2019-02-16T22:11:57.883Z,6.50
2019-02-16T22:14:27.225Z,6.41
2019-02-16T22:16:56.549Z,6.41
2019-02-16T22:19:26.342Z,6.49
2019-02-16T22:21:55.745Z,6.57
2019-02-16T22:24:25.330Z,6.60
2019-02-16T22:26:54.788Z,6.59
2019-02-16T22:29:24.176Z,6.38
2019-02-16T22:31:53.495Z,6.38
2019-02-16T22:34:22.975Z,6.52
2019-02-16T22:36:52.278Z,6.42
2019-02-16T22:39:21.683Z,6.42
2019-02-16T22:41:51.049Z,6.43
2019-02-16T22:44:20.380Z,6.43
2019-02-16T22:46:49.748Z,6.47
2019-02-16T22:49:20.884Z,6.47
2019-02-16T22:51:50.177Z,6.34
2019-02-16T22:54:19.693Z,6.33
2019-02-16T22:56:49.066Z,6.33
2019-02-16T22:59:18.426Z,6.29
2019-02-16T23:01:47.851Z,5.91
2019-02-16T23:04:17.493Z,5.89
2019-02-16T23:06:46.889Z,5.95
2019-02-16T23:09:18.237Z,5.80
2019-02-16T23:11:47.595Z,5.80
2019-02-16T23:14:17.077Z,6.00
2019-02-16T23:16:46.430Z,6.02
2019-02-16T23:19:15.810Z,5.93
2019-02-16T23:21:45.277Z,6.26
2019-02-16T23:24:14.593Z,6.26
2019-02-16T23:26:43.975Z,6.40
2019-02-16T23:29:13.301Z,6.55
2019-02-16T23:31:42.831Z,6.56
2019-02-16T23:34:12.280Z,6.59
2019-02-16T23:36:42.044Z,6.59
2019-02-16T23:39:13.304Z,6.54
2019-02-16T23:41:42.672Z,6.10
2019-02-16T23:44:12.066Z,5.85
2019-02-16T23:46:41.449Z,5.81
2019-02-16T23:49:10.807Z,5.81
2019-02-16T23:51:40.221Z,5.77
2019-02-16T23:54:09.653Z,5.50
2019-02-16T23:56:38.956Z,5.42
2019-02-16T23:59:08.407Z,5.76
